Time;durP1;ratioP1;P1;durP2;ratioP2;P2;SDS_P1;SDS_P2;PMS_P1;PMS_P2;Temp;Humidity;BMP_temperature;BMP_pressure;BME280_temperature;BME280_humidity;BME280_pressure;Samples;Min_cycle;Max_cycle;Signal;HPM_P1;HPM_P2
2022/08/31 00:04:30;;;;;;;2.37;2.27;;;25.50;44.40;;;;;;5021223;28;20504;-72
2022/08/31 00:06:59;;;;;;;2.90;2.60;;;25.50;44.40;;;;;;4996124;28;20449;-72
2022/08/31 00:09:29;;;;;;;2.83;2.63;;;25.50;44.40;;;;;;5006146;28;20461;-72
2022/08/31 00:11:59;;;;;;;2.70;2.00;;;25.50;44.50;;;;;;5006798;28;20542;-72
2022/08/31 00:14:28;;;;;;;2.33;2.13;;;25.60;44.50;;;;;;4983107;28;20479;-72
2022/08/31 00:16:56;;;;;;;2.73;1.87;;;25.60;44.50;;;;;;4997043;28;20432;-72
2022/08/31 00:19:25;;;;;;;2.33;1.90;;;25.50;45.60;;;;;;5005530;28;20564;-72
2022/08/31 00:21:53;;;;;;;2.70;2.50;;;25.50;44.50;;;;;;5002952;28;20448;-72
2022/08/31 00:24:22;;;;;;;2.73;2.50;;;25.60;44.40;;;;;;5004754;28;20530;-72
2022/08/31 00:26:50;;;;;;;5.53;2.53;;;25.60;44.40;;;;;;5039947;28;20436;-72
2022/08/31 00:29:20;;;;;;;2.70;2.30;;;25.60;44.50;;;;;;5004309;28;20931;-72
2022/08/31 00:31:49;;;;;;;3.27;2.30;;;25.60;44.40;;;;;;5005882;28;20471;-72
2022/08/31 00:34:18;;;;;;;4.73;2.47;;;25.50;44.40;;;;;;5005707;28;20847;-72
2022/08/31 00:36:47;;;;;;;3.50;2.20;;;25.50;44.30;;;;;;5005401;28;20576;-72
2022/08/31 00:39:15;;;;;;;2.70;2.47;;;25.50;44.10;;;;;;5006390;28;20484;-72
2022/08/31 00:41:44;;;;;;;2.60;2.30;;;25.50;44.20;;;;;;5007136;28;20485;-72
2022/08/31 00:44:13;;;;;;;4.50;2.43;;;25.50;44.20;;;;;;5010668;28;20483;-72
2022/08/31 00:46:44;;;;;;;3.33;2.60;;;25.50;44.30;;;;;;5015891;28;20866;-72
2022/08/31 00:49:16;;;;;;;7.33;3.50;;;25.50;44.90;;;;;;5001567;28;20487;-71
2022/08/31 00:51:49;;;;;;;2.63;2.40;;;25.50;44.30;;;;;;5002982;28;20965;-71
2022/08/31 00:54:20;;;;;;;2.80;2.60;;;25.50;44.30;;;;;;5042439;28;20464;-71
2022/08/31 00:56:49;;;;;;;2.40;2.20;;;25.50;44.30;;;;;;5035041;28;20452;-71
2022/08/31 00:59:20;;;;;;;2.50;2.30;;;25.50;44.30;;;;;;5009848;28;20477;-72
2022/08/31 01:01:50;;;;;;;2.70;2.50;;;25.50;44.40;;;;;;5022494;28;20991;-71
2022/08/31 01:04:18;;;;;;;2.87;2.47;;;25.50;44.50;;;;;;5008408;28;20484;-72
2022/08/31 01:06:48;;;;;;;2.93;2.73;;;25.50;44.60;;;;;;5024153;28;20468;-72
2022/08/31 01:09:17;;;;;;;3.03;2.70;;;25.50;44.40;;;;;;5005729;28;20996;-71
2022/08/31 01:11:45;;;;;;;2.77;2.57;;;25.50;44.40;;;;;;5010015;28;20789;-72
2022/08/31 01:14:14;;;;;;;3.10;2.80;;;25.50;44.50;;;;;;5008231;28;20484;-71
2022/08/31 01:16:46;;;;;;;2.63;2.30;;;25.50;44.40;;;;;;5006157;28;20433;-72
2022/08/31 01:19:28;;;;;;;2.60;2.40;;;25.50;44.50;;;;;;5001812;28;20819;-72
2022/08/31 01:22:04;;;;;;;2.60;2.40;;;25.50;44.50;;;;;;5008611;28;20563;-72
2022/08/31 01:24:34;;;;;;;2.10;2.00;;;25.50;44.60;;;;;;4991363;28;20471;-72
2022/08/31 01:27:06;;;;;;;2.47;2.27;;;25.50;44.50;;;;;;5006876;28;20433;-72
2022/08/31 01:29:36;;;;;;;2.53;2.33;;;25.50;44.60;;;;;;5003300;28;20500;-72
2022/08/31 01:32:06;;;;;;;2.43;2.23;;;25.50;44.60;;;;;;5024370;28;20851;-71
2022/08/31 01:34:35;;;;;;;2.80;1.97;;;25.50;44.60;;;;;;5025569;28;20469;-72
2022/08/31 01:37:03;;;;;;;2.50;2.30;;;25.50;44.60;;;;;;5002066;28;21014;-72
2022/08/31 01:39:32;;;;;;;3.30;3.00;;;25.50;44.70;;;;;;5007909;28;21093;-72
2022/08/31 01:42:01;;;;;;;2.57;2.37;;;25.50;44.60;;;;;;5008204;28;20959;-72
2022/08/31 01:44:30;;;;;;;2.40;2.20;;;25.50;44.60;;;;;;5005069;28;20560;-72
2022/08/31 01:46:59;;;;;;;2.17;2.07;;;25.50;44.60;;;;;;5037814;23;20481;-72
2022/08/31 01:49:28;;;;;;;2.90;2.53;;;25.50;44.70;;;;;;5006735;28;20560;-72
2022/08/31 01:51:57;;;;;;;3.70;2.03;;;25.50;44.70;;;;;;5023019;28;20811;-71
2022/08/31 01:54:26;;;;;;;2.43;2.23;;;25.50;44.60;;;;;;5004520;28;21018;-72
2022/08/31 01:56:55;;;;;;;3.53;2.33;;;25.50;44.70;;;;;;5004436;28;20440;-72
2022/08/31 01:59:51;;;;;;;2.63;2.17;;;25.50;44.70;;;;;;4988706;28;20498;-72
2022/08/31 02:02:38;;;;;;;5.83;2.70;;;25.50;44.80;;;;;;4990515;28;20450;-72
2022/08/31 02:05:10;;;;;;;1.97;1.87;;;25.50;44.80;;;;;;5022797;28;20454;-72
2022/08/31 02:07:39;;;;;;;1.93;1.83;;;25.50;44.80;;;;;;5007710;28;20941;-71
2022/08/31 02:10:08;;;;;;;3.30;3.00;;;25.50;44.80;;;;;;5006814;28;20477;-72
2022/08/31 02:12:37;;;;;;;3.00;2.57;;;25.50;44.80;;;;;;5007150;28;20484;-71
2022/08/31 02:15:10;;;;;;;2.40;2.20;;;25.50;44.80;;;;;;5005405;28;20539;-73
2022/08/31 02:17:39;;;;;;;2.50;2.23;;;25.50;44.80;;;;;;5007422;28;20423;-72
2022/08/31 02:20:10;;;;;;;2.47;2.27;;;25.50;45.00;;;;;;5006013;28;20814;-72
2022/08/31 02:22:38;;;;;;;2.20;2.00;;;25.50;44.70;;;;;;4991265;28;20513;-72
2022/08/31 02:25:10;;;;;;;3.03;2.50;;;25.40;44.70;;;;;;5025763;28;20803;-71
2022/08/31 02:27:39;;;;;;;2.60;2.40;;;25.50;44.80;;;;;;5027282;28;20483;-72
2022/08/31 02:30:13;;;;;;;2.17;1.97;;;25.50;44.80;;;;;;5004281;28;20556;-72
2022/08/31 02:32:42;;;;;;;2.67;2.47;;;25.40;44.80;;;;;;5022980;28;20429;-71
2022/08/31 02:35:11;;;;;;;2.30;2.10;;;25.40;44.80;;;;;;5023989;28;20825;-72
2022/08/31 02:37:40;;;;;;;2.80;2.27;;;25.40;44.80;;;;;;5010446;28;20963;-72
2022/08/31 02:40:10;;;;;;;2.40;2.20;;;25.40;44.80;;;;;;5002509;28;20458;-73
2022/08/31 02:42:42;;;;;;;3.53;2.40;;;25.40;44.80;;;;;;5002562;28;20933;-72
2022/08/31 02:45:25;;;;;;;3.43;2.60;;;25.40;44.90;;;;;;5005416;28;20574;-71
2022/08/31 02:48:00;;;;;;;2.67;2.47;;;25.40;44.90;;;;;;4988949;28;20878;-72
2022/08/31 02:50:38;;;;;;;2.97;2.77;;;25.40;45.00;;;;;;5004955;28;20826;-72
2022/08/31 02:53:07;;;;;;;2.33;2.13;;;25.40;44.90;;;;;;4997835;28;20467;-72
2022/08/31 02:55:36;;;;;;;7.77;3.90;;;25.40;45.00;;;;;;5001418;28;20465;-72
2022/08/31 02:58:05;;;;;;;2.60;1.97;;;25.40;44.90;;;;;;5005262;28;20788;-71
2022/08/31 03:00:36;;;;;;;2.97;2.23;;;25.40;45.00;;;;;;4995135;28;20513;-71
2022/08/31 03:03:05;;;;;;;2.60;2.40;;;25.40;45.10;;;;;;4982949;28;20847;-70
2022/08/31 03:05:34;;;;;;;2.47;2.27;;;25.40;45.00;;;;;;4993460;28;20445;-72
2022/08/31 03:08:03;;;;;;;2.70;2.50;;;25.40;45.00;;;;;;5003478;28;20496;-70
2022/08/31 03:10:32;;;;;;;2.13;1.90;;;25.40;45.10;;;;;;4988551;28;20477;-72
2022/08/31 03:13:00;;;;;;;2.70;2.50;;;25.40;45.10;;;;;;5002821;28;21015;-71
2022/08/31 03:15:29;;;;;;;2.47;2.27;;;25.40;45.10;;;;;;4988267;28;20481;-73
2022/08/31 03:18:03;;;;;;;2.27;2.07;;;25.40;45.10;;;;;;5003451;28;20945;-71
2022/08/31 03:20:35;;;;;;;2.67;2.47;;;25.40;45.10;;;;;;4988979;28;20870;-72
2022/08/31 03:23:05;;;;;;;2.63;2.43;;;25.40;45.20;;;;;;5003746;28;21086;-72
2022/08/31 03:25:34;;;;;;;2.60;2.40;;;25.40;46.40;;;;;;5024824;28;20429;-71
2022/08/31 03:28:07;;;;;;;2.50;2.30;;;25.40;45.20;;;;;;5007193;28;20445;-72
2022/08/31 03:30:39;;;;;;;2.27;1.87;;;25.40;45.20;;;;;;5023567;28;20447;-72
2022/08/31 03:33:13;;;;;;;2.93;2.63;;;25.40;45.30;;;;;;5019550;28;20488;-72
2022/08/31 03:35:43;;;;;;;2.90;2.70;;;25.40;45.20;;;;;;5014306;28;20992;-72
2022/08/31 03:38:14;;;;;;;2.10;1.90;;;25.40;45.30;;;;;;5007410;28;21047;-73
2022/08/31 03:40:44;;;;;;;2.50;2.30;;;25.40;45.30;;;;;;4999313;28;20469;-71
2022/08/31 03:43:14;;;;;;;1.87;1.77;;;25.30;45.20;;;;;;5010128;28;20470;-71
2022/08/31 03:45:43;;;;;;;2.60;2.40;;;25.30;45.20;;;;;;4984611;28;20532;-72
2022/08/31 03:48:14;;;;;;;2.23;2.10;;;25.40;45.40;;;;;;4979247;28;20445;-73
2022/08/31 03:50:45;;;;;;;2.13;2.03;;;25.30;45.20;;;;;;4966245;28;20450;-72
2022/08/31 03:53:23;;;;;;;2.20;1.97;;;25.30;45.20;;;;;;4985635;28;20476;-71
2022/08/31 03:55:59;;;;;;;3.00;2.80;;;25.30;45.40;;;;;;5023159;28;20460;-72
2022/08/31 03:58:31;;;;;;;2.67;2.30;;;25.30;45.40;;;;;;5007069;28;20445;-73
2022/08/31 04:01:01;;;;;;;2.50;2.30;;;25.30;45.30;;;;;;5016031;28;20485;-72
2022/08/31 04:03:51;;;;;;;2.80;2.60;;;25.30;45.30;;;;;;4966989;28;20469;-73
2022/08/31 04:06:40;;;;;;;3.20;2.90;;;25.30;45.40;;;;;;4988142;28;20928;-71
2022/08/31 04:09:26;;;;;;;2.60;2.40;;;25.30;45.50;;;;;;4982602;28;20509;-73
2022/08/31 04:12:31;;;;;;;2.80;2.60;;;25.30;45.50;;;;;;5000962;28;21381;-72
2022/08/31 04:15:32;;;;;;;2.50;2.30;;;25.30;45.50;;;;;;5002120;28;20467;-71
2022/08/31 04:18:19;;;;;;;2.80;2.60;;;25.30;45.40;;;;;;4999759;28;20460;-72
2022/08/31 04:20:50;;;;;;;2.97;2.67;;;25.30;45.40;;;;;;5022608;28;20604;-73
2022/08/31 04:23:19;;;;;;;2.60;2.23;;;25.30;45.40;;;;;;5013514;28;20485;-72
2022/08/31 04:25:51;;;;;;;2.70;2.50;;;25.20;45.40;;;;;;5023834;28;20504;-71
2022/08/31 04:28:20;;;;;;;3.43;2.50;;;25.30;45.70;;;;;;5006561;28;20440;-73
2022/08/31 04:30:48;;;;;;;2.50;2.30;;;25.30;45.80;;;;;;5025723;28;21019;-71
2022/08/31 04:33:17;;;;;;;5.07;2.53;;;25.20;45.80;;;;;;5020374;28;20574;-73
2022/08/31 04:35:46;;;;;;;3.27;2.97;;;25.30;45.70;;;;;;5006272;28;20472;-71
2022/08/31 04:38:16;;;;;;;2.93;2.50;;;25.30;45.80;;;;;;5007555;28;20949;-71
2022/08/31 04:40:46;;;;;;;2.50;2.30;;;25.20;45.70;;;;;;5007747;28;20496;-71
2022/08/31 04:43:14;;;;;;;2.17;2.00;;;25.20;45.80;;;;;;4994479;28;20469;-72
2022/08/31 04:45:43;;;;;;;2.13;2.03;;;25.20;45.70;;;;;;4999106;28;20491;-73
2022/08/31 04:48:14;;;;;;;4.70;2.93;;;25.20;45.60;;;;;;5010032;28;20532;-73
2022/08/31 04:50:43;;;;;;;2.43;2.23;;;25.20;45.70;;;;;;5025892;28;20818;-72
2022/08/31 04:53:12;;;;;;;3.20;2.77;;;25.20;45.90;;;;;;5007789;28;20512;-72
2022/08/31 04:55:43;;;;;;;2.67;2.47;;;25.20;46.00;;;;;;5003661;28;21036;-72
2022/08/31 04:58:14;;;;;;;19.97;4.23;;;25.20;45.90;;;;;;5012478;28;20445;-72
2022/08/31 05:00:43;;;;;;;5.00;3.07;;;25.20;45.90;;;;;;5026092;28;20532;-73
2022/08/31 05:03:11;;;;;;;6.23;3.63;;;25.20;45.90;;;;;;5011030;28;20452;-71
2022/08/31 05:05:41;;;;;;;2.20;2.00;;;25.20;45.80;;;;;;5025946;28;20804;-73
2022/08/31 05:08:09;;;;;;;2.80;2.43;;;25.20;45.90;;;;;;5009002;28;20460;-73
2022/08/31 05:10:39;;;;;;;3.73;2.30;;;25.20;46.00;;;;;;5027129;28;20495;-72
2022/08/31 05:13:09;;;;;;;3.27;2.97;;;25.20;46.10;;;;;;5015844;28;20499;-72
2022/08/31 05:15:42;;;;;;;2.50;2.27;;;25.10;46.00;;;;;;5023129;28;20820;-72
2022/08/31 05:18:14;;;;;;;6.20;2.70;;;25.20;46.10;;;;;;5025633;28;21002;-72
2022/08/31 05:20:50;;;;;;;2.50;2.30;;;25.10;46.10;;;;;;5024751;28;20463;-71
2022/08/31 05:23:19;;;;;;;2.50;2.30;;;25.10;46.00;;;;;;5018587;28;20468;-72
2022/08/31 05:25:48;;;;;;;2.93;2.57;;;25.10;46.00;;;;;;5018482;28;20489;-71
2022/08/31 05:28:21;;;;;;;2.90;2.70;;;25.10;45.90;;;;;;5023015;28;20442;-73
2022/08/31 05:30:50;;;;;;;4.03;3.00;;;25.20;46.20;;;;;;5023062;28;20449;-73
2022/08/31 05:33:30;;;;;;;3.90;2.90;;;25.10;46.20;;;;;;5019039;28;20461;-71
2022/08/31 05:36:01;;;;;;;2.60;2.37;;;25.10;46.20;;;;;;5024000;28;20543;-72
2022/08/31 05:38:29;;;;;;;5.17;2.77;;;25.10;46.20;;;;;;5025701;28;20444;-73
2022/08/31 05:40:59;;;;;;;2.87;2.67;;;25.10;46.30;;;;;;5024941;28;20461;-72
2022/08/31 05:43:29;;;;;;;2.63;2.30;;;25.10;46.30;;;;;;5001513;28;20470;-73
2022/08/31 05:45:58;;;;;;;3.53;2.73;;;25.10;46.40;;;;;;4989612;28;20457;-71
2022/08/31 05:48:32;;;;;;;4.87;2.80;;;25.10;46.40;;;;;;5005902;28;20453;-72
2022/08/31 05:51:03;;;;;;;7.33;3.50;;;25.10;46.50;;;;;;5005368;28;20622;-72
2022/08/31 05:53:32;;;;;;;3.20;2.93;;;25.10;46.30;;;;;;5005200;28;20469;-71
2022/08/31 05:56:03;;;;;;;3.30;2.80;;;25.10;46.40;;;;;;4989372;28;20497;-71
2022/08/31 05:58:34;;;;;;;3.07;2.87;;;25.10;46.40;;;;;;5006235;28;20465;-72
2022/08/31 06:01:04;;;;;;;6.30;3.80;;;25.10;46.40;;;;;;5004179;28;20461;-72
2022/08/31 06:03:53;;;;;;;3.20;2.57;;;25.10;46.50;;;;;;4990245;28;20664;-73
2022/08/31 06:06:22;;;;;;;3.20;2.53;;;25.10;46.40;;;;;;5004937;28;20445;-73
2022/08/31 06:08:51;;;;;;;4.17;2.40;;;25.10;46.40;;;;;;5020764;28;20464;-72
2022/08/31 06:11:22;;;;;;;3.90;3.10;;;25.10;46.50;;;;;;5005951;28;20446;-72
2022/08/31 06:13:57;;;;;;;3.00;2.70;;;25.00;46.40;;;;;;4989278;28;20484;-72
2022/08/31 06:16:26;;;;;;;3.07;2.77;;;25.10;46.50;;;;;;5002574;28;20472;-72
2022/08/31 06:18:56;;;;;;;4.93;2.93;;;25.10;46.50;;;;;;5003280;28;20566;-73
2022/08/31 06:21:29;;;;;;;3.07;2.77;;;25.10;46.60;;;;;;5005446;28;20799;-72
2022/08/31 06:23:58;;;;;;;2.73;2.53;;;25.00;46.60;;;;;;5005379;28;20543;-72
2022/08/31 06:26:29;;;;;;;2.83;2.53;;;25.00;46.60;;;;;;5000427;28;20860;-72
2022/08/31 06:29:02;;;;;;;2.90;2.60;;;25.10;46.70;;;;;;5003594;28;20902;-70
2022/08/31 06:31:34;;;;;;;3.43;2.80;;;25.00;46.70;;;;;;5005852;28;20446;-70
2022/08/31 06:34:06;;;;;;;3.43;2.90;;;25.00;46.70;;;;;;4981068;28;20855;-72
2022/08/31 06:36:54;;;;;;;2.73;2.30;;;25.00;46.70;;;;;;4987879;28;20822;-71
2022/08/31 06:39:32;;;;;;;4.20;2.80;;;25.00;46.70;;;;;;4989348;28;20472;-73
2022/08/31 06:42:33;;;;;;;3.60;2.90;;;25.00;46.70;;;;;;4983206;28;20627;-72
2022/08/31 06:45:17;;;;;;;4.27;2.40;;;25.00;46.70;;;;;;5020400;28;20551;-71
2022/08/31 06:48:02;;;;;;;3.23;2.60;;;25.00;46.80;;;;;;5016942;28;20812;-71
2022/08/31 06:50:31;;;;;;;3.63;3.13;;;25.00;46.70;;;;;;5023707;28;20449;-72
2022/08/31 06:52:59;;;;;;;2.80;2.40;;;24.90;46.70;;;;;;5020422;28;20465;-72
2022/08/31 06:56:04;;;;;;;3.53;2.43;;;25.00;46.60;;;;;;4995150;28;20826;-72
2022/08/31 06:59:26;;;;;;;3.10;2.63;;;25.00;46.70;;;;;;4950952;28;20475;-73
2022/08/31 07:02:14;;;;;;;4.47;2.47;;;25.00;46.70;;;;;;4948876;29;20871;-73
2022/08/31 07:04:43;;;;;;;2.80;2.50;;;24.90;46.50;;;;;;4969479;28;21073;-72
2022/08/31 07:07:12;;;;;;;3.37;2.80;;;25.00;46.70;;;;;;4986769;28;20680;-71
2022/08/31 07:09:42;;;;;;;3.37;2.47;;;25.00;46.70;;;;;;5002392;28;20473;-71
2022/08/31 07:12:11;;;;;;;3.40;3.10;;;25.00;46.70;;;;;;4980138;28;20442;-71
2022/08/31 07:14:39;;;;;;;3.17;2.97;;;24.90;46.70;;;;;;5002834;28;20474;-71
2022/08/31 07:17:10;;;;;;;4.93;2.63;;;24.90;46.70;;;;;;4983163;28;20470;-72
2022/08/31 07:19:40;;;;;;;2.63;2.43;;;24.90;46.70;;;;;;4976148;28;20455;-71
2022/08/31 07:22:13;;;;;;;2.70;2.00;;;24.90;46.70;;;;;;4985086;28;20454;-72
2022/08/31 07:24:45;;;;;;;3.70;3.30;;;24.90;46.70;;;;;;5019945;28;20561;-71
2022/08/31 07:27:17;;;;;;;4.30;2.90;;;24.90;46.90;;;;;;5016811;28;20439;-72
2022/08/31 07:29:59;;;;;;;3.03;2.37;;;24.90;46.70;;;;;;5022958;28;20833;-73
2022/08/31 07:32:30;;;;;;;2.87;2.57;;;24.90;46.60;;;;;;5017944;28;20889;-71
2022/08/31 07:35:01;;;;;;;5.40;3.07;;;24.90;46.70;;;;;;5020540;28;20457;-71
2022/08/31 07:43:03;;;;;;;3.00;2.70;;;24.90;47.00;;;;;;4998863;28;20829;-71
2022/08/31 07:45:36;;;;;;;3.30;3.00;;;24.90;47.10;;;;;;5007477;28;20452;-71
2022/08/31 07:48:07;;;;;;;3.17;2.87;;;24.90;47.00;;;;;;5131402;22;20502;-67
2022/08/31 07:50:58;;;;;;;3.20;2.90;;;24.90;47.10;;;;;;5039171;28;20475;-68
2022/08/31 07:53:46;;;;;;;4.10;3.70;;;24.90;46.60;;;;;;5037256;28;21394;-67
2022/08/31 07:56:33;;;;;;;4.30;3.90;;;24.90;47.40;;;;;;5012923;28;20433;-67
2022/08/31 07:59:11;;;;;;;6.60;4.10;;;24.80;47.40;;;;;;5016708;28;20537;-67
2022/08/31 08:01:42;;;;;;;4.10;2.97;;;24.80;47.60;;;;;;5012227;28;20440;-67
2022/08/31 08:04:14;;;;;;;5.30;3.17;;;24.80;47.60;;;;;;5000442;28;20531;-66
2022/08/31 08:07:04;;;;;;;3.90;3.60;;;24.80;47.50;;;;;;5023235;28;20856;-66
2022/08/31 08:09:54;;;;;;;3.93;3.10;;;24.90;47.80;;;;;;5019468;28;20976;-65
2022/08/31 08:12:56;;;;;;;4.60;3.60;;;24.80;47.60;;;;;;5022500;28;20500;-67
2022/08/31 08:15:50;;;;;;;3.53;3.23;;;24.80;47.70;;;;;;5021975;28;20436;-66
2022/08/31 08:18:30;;;;;;;3.23;3.03;;;24.80;47.60;;;;;;5013533;28;20468;-66
2022/08/31 08:21:01;;;;;;;3.80;3.50;;;24.80;47.50;;;;;;5028519;28;20534;-66
2022/08/31 08:23:32;;;;;;;3.53;3.23;;;24.80;47.70;;;;;;5029402;28;20987;-65
2022/08/31 08:26:34;;;;;;;5.40;3.83;;;24.80;47.60;;;;;;5021924;28;20966;-67
2022/08/31 08:29:11;;;;;;;3.73;3.40;;;24.80;47.80;;;;;;5005966;28;20562;-67
2022/08/31 08:31:44;;;;;;;3.37;3.07;;;24.80;47.70;;;;;;5028814;28;20480;-67
2022/08/31 08:34:13;;;;;;;4.00;3.60;;;24.80;47.70;;;;;;5019342;28;20479;-67
2022/08/31 08:36:42;;;;;;;4.97;4.47;;;24.80;48.00;;;;;;5019682;28;20657;-66
2022/08/31 08:39:11;;;;;;;3.93;3.53;;;24.70;48.00;;;;;;5029102;28;20594;-65
2022/08/31 08:41:51;;;;;;;4.07;3.70;;;24.80;48.30;;;;;;5038391;28;20493;-65
2022/08/31 08:44:28;;;;;;;5.23;3.60;;;24.80;48.30;;;;;;5027745;28;20514;-66
2022/08/31 08:46:59;;;;;;;4.73;4.23;;;24.80;48.30;;;;;;5021246;28;20885;-66
2022/08/31 08:49:42;;;;;;;4.33;3.63;;;24.80;48.40;;;;;;5028764;28;20482;-65
2022/08/31 08:52:16;;;;;;;3.90;3.60;;;24.80;48.20;;;;;;5031868;28;20446;-66
2022/08/31 08:54:49;;;;;;;4.97;3.70;;;24.80;48.20;;;;;;5047355;28;21015;-67
2022/08/31 08:57:21;;;;;;;3.40;3.20;;;24.80;48.20;;;;;;5036317;28;20452;-66
2022/08/31 08:59:53;;;;;;;4.33;3.27;;;24.80;48.10;;;;;;5038589;28;20487;-72
2022/08/31 09:02:30;;;;;;;4.47;3.60;;;24.80;48.30;;;;;;5044980;28;20498;-72
2022/08/31 09:05:15;;;;;;;4.30;3.90;;;24.70;48.20;;;;;;5037422;28;20455;-73
2022/08/31 09:08:09;;;;;;;4.43;3.50;;;24.70;48.20;;;;;;5038173;28;20435;-72
2022/08/31 09:10:44;;;;;;;3.40;3.10;;;24.70;48.40;;;;;;5041755;28;20437;-72
2022/08/31 09:13:24;;;;;;;3.27;2.97;;;24.70;48.30;;;;;;5045385;28;20459;-73
2022/08/31 09:16:10;;;;;;;3.50;3.20;;;24.70;48.20;;;;;;5034048;28;20537;-72
2022/08/31 09:18:51;;;;;;;2.90;2.70;;;24.70;48.30;;;;;;5040236;28;20608;-72
2022/08/31 09:21:24;;;;;;;3.83;3.53;;;24.70;48.10;;;;;;5034468;28;20443;-72
2022/08/31 09:24:02;;;;;;;4.37;3.97;;;24.70;48.20;;;;;;5046674;28;20585;-72
2022/08/31 09:27:03;;;;;;;3.47;3.17;;;24.70;48.40;;;;;;5033307;28;20432;-73
2022/08/31 09:29:42;;;;;;;3.73;3.00;;;24.70;48.30;;;;;;5019512;28;20466;-72
2022/08/31 09:32:22;;;;;;;4.63;3.70;;;24.70;48.10;;;;;;5032454;28;20456;-71
2022/08/31 09:34:57;;;;;;;3.63;3.33;;;24.70;48.30;;;;;;5038824;28;20459;-71
2022/08/31 09:37:32;;;;;;;3.77;3.47;;;24.70;48.30;;;;;;5036820;28;20860;-72
2022/08/31 09:40:15;;;;;;;4.67;4.27;;;24.70;48.30;;;;;;5020232;28;20474;-72
2022/08/31 09:43:04;;;;;;;3.80;3.37;;;24.70;48.90;;;;;;5016219;28;20543;-72
2022/08/31 09:45:35;;;;;;;3.70;3.40;;;24.70;48.60;;;;;;5017422;28;20816;-72
2022/08/31 09:48:09;;;;;;;4.23;3.67;;;24.70;48.40;;;;;;5021912;28;20487;-72
2022/08/31 09:50:43;;;;;;;4.63;4.07;;;24.70;48.30;;;;;;5015130;28;20939;-73
2022/08/31 09:56:18;;;;;;;6.95;6.25;;;24.60;48.90;;;;;;5018064;28;20445;-72
2022/08/31 09:58:51;;;;;;;5.97;4.77;;;24.60;51.00;;;;;;5041756;28;20224;-72
2022/08/31 10:01:25;;;;;;;4.90;4.43;;;24.60;50.70;;;;;;5038627;28;20433;-72
2022/08/31 10:04:15;;;;;;;4.80;4.40;;;24.50;50.40;;;;;;5028409;28;20479;-73
2022/08/31 10:06:54;;;;;;;4.20;3.80;;;24.60;50.00;;;;;;5046804;28;20463;-72
2022/08/31 10:09:29;;;;;;;4.97;4.23;;;24.60;49.80;;;;;;5035978;28;20475;-71
2022/08/31 10:12:03;;;;;;;4.73;4.27;;;24.60;49.60;;;;;;5039577;28;20453;-72
2022/08/31 10:14:37;;;;;;;3.60;3.27;;;24.60;49.40;;;;;;5040735;28;20491;-72
2022/08/31 10:17:13;;;;;;;4.13;3.80;;;24.60;49.40;;;;;;5043172;28;20475;-72
2022/08/31 10:19:52;;;;;;;4.67;4.10;;;24.60;49.50;;;;;;5047624;28;20470;-71
2022/08/31 10:22:31;;;;;;;4.30;3.90;;;24.60;49.80;;;;;;5040499;28;20447;-72
2022/08/31 10:25:19;;;;;;;4.17;3.77;;;24.60;49.90;;;;;;5029331;28;20711;-72
2022/08/31 10:27:52;;;;;;;4.40;4.00;;;24.60;49.50;;;;;;5048269;28;20468;-73
2022/08/31 10:30:28;;;;;;;5.03;4.10;;;24.60;49.60;;;;;;5028119;28;20468;-72
2022/08/31 10:33:04;;;;;;;4.63;3.80;;;24.60;49.50;;;;;;5030632;28;20460;-71
2022/08/31 10:35:41;;;;;;;5.03;4.63;;;24.60;49.40;;;;;;5023670;28;20954;-72
2022/08/31 10:38:22;;;;;;;4.33;4.03;;;24.60;49.50;;;;;;5036009;28;20466;-72
2022/08/31 10:40:58;;;;;;;4.10;3.80;;;24.60;49.40;;;;;;5027631;28;20803;-72
2022/08/31 10:43:31;;;;;;;4.23;3.80;;;24.60;49.20;;;;;;5028187;28;20471;-64
2022/08/31 10:46:02;;;;;;;4.30;3.90;;;24.60;49.20;;;;;;5028912;28;20420;-67
2022/08/31 10:48:32;;;;;;;4.43;4.03;;;24.60;49.20;;;;;;5029259;28;20483;-65
2022/08/31 10:51:12;;;;;;;4.53;4.20;;;24.60;49.40;;;;;;5022867;28;20444;-66
2022/08/31 10:53:53;;;;;;;4.00;3.70;;;24.60;49.30;;;;;;5019626;28;21086;-65
2022/08/31 10:56:36;;;;;;;4.50;3.50;;;24.60;49.30;;;;;;5027851;28;20478;-67
2022/08/31 10:59:13;;;;;;;5.47;3.97;;;24.60;49.20;;;;;;5018324;28;20473;-67
2022/08/31 11:01:53;;;;;;;3.77;3.43;;;24.60;49.30;;;;;;5027675;28;20966;-66
2022/08/31 11:04:50;;;;;;;5.07;4.43;;;24.60;49.30;;;;;;5034126;28;20479;-67
2022/08/31 11:07:41;;;;;;;4.27;3.87;;;24.60;49.70;;;;;;5040000;28;20822;-67
2022/08/31 11:10:21;;;;;;;4.93;4.47;;;24.60;49.40;;;;;;5029814;28;20465;-66
2022/08/31 11:12:55;;;;;;;5.73;4.07;;;24.50;49.50;;;;;;5015948;28;20467;-67
2022/08/31 11:15:55;;;;;;;4.60;4.20;;;24.60;49.40;;;;;;5016715;28;20602;-66
2022/08/31 11:18:53;;;;;;;4.27;3.87;;;24.60;49.30;;;;;;5020952;28;20466;-66
2022/08/31 11:21:52;;;;;;;4.10;3.80;;;24.60;49.30;;;;;;5021119;28;20523;-66
2022/08/31 11:25:04;;;;;;;4.50;4.10;;;24.50;49.40;;;;;;5026224;28;20464;-67
2022/08/31 11:27:38;;;;;;;4.50;3.97;;;24.50;49.20;;;;;;5007515;28;20452;-67
2022/08/31 11:30:23;;;;;;;4.73;4.33;;;24.50;49.60;;;;;;5021864;28;20484;-67
2022/08/31 11:32:54;;;;;;;6.20;5.67;;;24.50;49.60;;;;;;5000071;28;20460;-67
2022/08/31 11:36:01;;;;;;;4.73;4.40;;;24.50;50.20;;;;;;5015839;28;21045;-66
2022/08/31 11:38:48;;;;;;;4.90;4.50;;;24.50;50.20;;;;;;5021920;28;20460;-66
2022/08/31 11:41:35;;;;;;;3.97;3.60;;;24.50;49.70;;;;;;5014017;28;20510;-66
2022/08/31 11:44:08;;;;;;;4.20;3.90;;;24.50;49.40;;;;;;5016420;28;20471;-67
2022/08/31 11:47:02;;;;;;;4.17;3.87;;;24.50;49.30;;;;;;5021919;28;20456;-66
2022/08/31 11:49:41;;;;;;;4.27;3.97;;;24.50;49.30;;;;;;5008946;28;20467;-67
2022/08/31 11:52:28;;;;;;;4.87;4.47;;;24.50;49.70;;;;;;5028916;28;20590;-66
2022/08/31 11:55:05;;;;;;;5.13;4.60;;;24.50;49.40;;;;;;5015414;28;20462;-67
2022/08/31 11:58:14;;;;;;;5.30;4.80;;;24.50;49.60;;;;;;5024269;28;20809;-66
2022/08/31 12:00:58;;;;;;;5.53;5.10;;;24.50;49.40;;;;;;5016964;28;20460;-72
2022/08/31 12:03:49;;;;;;;7.50;6.50;;;24.50;49.90;;;;;;5018567;28;20505;-72
2022/08/31 12:07:07;;;;;;;5.00;4.60;;;24.50;49.90;;;;;;5024377;28;20444;-72
2022/08/31 12:10:01;;;;;;;4.43;4.03;;;24.50;49.40;;;;;;5039757;28;20474;-72
2022/08/31 12:12:57;;;;;;;5.10;4.70;;;24.50;49.20;;;;;;5046145;28;20454;-72
2022/08/31 12:15:35;;;;;;;5.43;5.03;;;24.50;49.40;;;;;;4998113;28;20488;-73
2022/08/31 12:18:18;;;;;;;4.80;4.50;;;24.50;49.40;;;;;;5017157;28;20499;-72
2022/08/31 12:23:58;;;;;;;4.50;4.20;;;24.50;49.50;;;;;;5029151;28;21016;-72
2022/08/31 12:26:59;;;;;;;5.30;4.90;;;24.50;49.30;;;;;;5031888;28;20436;-72
2022/08/31 12:29:30;;;;;;;4.90;4.53;;;24.50;49.20;;;;;;5010759;28;20876;-72
2022/08/31 12:32:19;;;;;;;4.93;4.53;;;24.50;49.20;;;;;;5025149;28;20447;-71
2022/08/31 12:34:55;;;;;;;6.37;5.77;;;24.50;49.40;;;;;;5023274;28;20472;-72
2022/08/31 12:37:27;;;;;;;4.87;4.47;;;24.50;49.50;;;;;;5022737;28;20474;-71
2022/08/31 12:40:11;;;;;;;5.27;4.87;;;24.50;49.50;;;;;;5023937;28;20564;-72
2022/08/31 12:42:49;;;;;;;4.97;4.63;;;24.50;49.40;;;;;;5014845;28;20437;-70
2022/08/31 12:45:18;;;;;;;5.13;4.63;;;24.50;49.60;;;;;;5017109;28;20475;-71
2022/08/31 12:47:57;;;;;;;4.77;4.30;;;24.50;49.60;;;;;;5025093;28;20448;-73
2022/08/31 12:50:32;;;;;;;5.23;4.73;;;24.50;49.60;;;;;;5036433;28;20525;-72
2022/08/31 12:53:32;;;;;;;5.07;4.70;;;24.50;49.80;;;;;;5025854;28;20562;-71
2022/08/31 12:56:10;;;;;;;5.67;5.17;;;24.50;49.40;;;;;;5027189;28;20464;-72
2022/08/31 12:58:55;;;;;;;4.70;4.30;;;24.50;49.40;;;;;;5024496;28;20994;-72
2022/08/31 13:01:26;;;;;;;6.00;5.40;;;24.50;49.30;;;;;;5022572;28;20440;-73
2022/08/31 13:03:59;;;;;;;5.10;4.60;;;24.50;49.40;;;;;;5027245;28;20550;-73
2022/08/31 13:06:30;;;;;;;5.00;4.60;;;24.50;49.30;;;;;;5022852;28;20448;-72
2022/08/31 13:09:00;;;;;;;4.70;4.40;;;24.50;49.40;;;;;;5042549;28;21009;-72
2022/08/31 13:11:32;;;;;;;4.70;4.40;;;24.50;49.30;;;;;;5026366;28;20432;-71
2022/08/31 13:14:17;;;;;;;4.43;4.13;;;24.50;49.40;;;;;;5017290;28;20479;-73
2022/08/31 13:16:48;;;;;;;5.63;4.23;;;24.50;49.40;;;;;;5021111;28;20456;-72
2022/08/31 13:19:24;;;;;;;4.50;4.20;;;24.50;49.30;;;;;;5029865;28;20486;-72
2022/08/31 13:21:56;;;;;;;5.07;4.67;;;24.50;49.20;;;;;;5019406;28;20476;-71
2022/08/31 13:24:29;;;;;;;4.83;4.40;;;24.50;49.20;;;;;;5027470;28;20476;-72
2022/08/31 13:27:07;;;;;;;4.60;4.30;;;24.50;49.40;;;;;;5028615;28;20468;-72
2022/08/31 13:29:42;;;;;;;4.60;4.30;;;24.50;49.20;;;;;;5033030;28;20545;-72
2022/08/31 13:32:14;;;;;;;4.00;3.70;;;24.50;49.20;;;;;;5028876;28;20448;-70
2022/08/31 13:34:42;;;;;;;5.10;4.70;;;24.50;49.10;;;;;;5004559;28;20457;-72
2022/08/31 13:37:17;;;;;;;7.27;4.40;;;24.50;49.40;;;;;;5027109;28;20225;-72
2022/08/31 13:39:47;;;;;;;4.40;4.00;;;24.50;49.30;;;;;;5028277;28;20472;-72
2022/08/31 13:42:27;;;;;;;4.33;4.00;;;24.50;49.20;;;;;;5024650;28;20437;-72
2022/08/31 13:45:02;;;;;;;4.97;4.50;;;24.50;49.20;;;;;;5018161;28;20480;-66
2022/08/31 13:47:33;;;;;;;4.77;4.37;;;24.50;49.10;;;;;;5037096;23;20890;-67